Terminal Aerodrome Forecast
Issued by NWS

Home | Current Version | Previous Version | Text Only | Print | Product List | Glossary On
Versions: 1 2 3 4 5 6 7 8 9 10 11 12 13 14 15 16 17
000
FTUS42 KMLB 242320
TAFSUA
TAF
KSUA 242320Z 2500/2524 09012G18KT P6SM SCT025 BKN080
     FM250600 10006KT P6SM SCT025
     FM251300 11013KT P6SM SCT025 BKN050
     FM251600 11017G24KT P6SM FEW030 SCT060=

USA.gov is the U.S. government's official web portal to all federal, state and local government web resources and services.